Chie Maru No.10 — JD2376 — position and weather

sailwx.info

Track history (hours):
 
Tides and Currents Weather Stations Pressure Air Temp Water Temp Dewpoint Dewpoint Depression Visibility Wind Speed Wind Dir Waves Ship Positions

Chie Maru No.10

Last reported at 2017-Oct-20 13:29 UTC. Time now 2017-Oct-20 14:40 UTC.
Position N 34°08' E 135°07'.

Length 72 m; draft 5 m.

Type: Ship. MMSI: 431000147.

Date/timePositionNaut miles runAvg speedWind from/ knotsBaromVisibWave heightAir tempDewpointWater temp
2017-Oct-20 13:29N 34°08' E 135°07'0 0.0
2017-Oct-20 12:53N 34°08' E 135°07'0 0.0
2017-Oct-20 12:29N 34°08' E 135°07'0 0.0
2017-Oct-20 11:59N 34°08' E 135°07'2 3.9
2017-Oct-20 11:30N 34°09' E 135°05'611.4
2017-Oct-20 11:00N 34°13' E 135°01'10 9.8
2017-Oct-20 09:56N 34°24' E 135°02'612.2
2017-Oct-20 09:28N 34°27' E 135°08'612.5
2017-Oct-20 09:00N 34°30' E 135°14'612.4
2017-Oct-20 08:30N 34°33' E 135°21'4 7.7
2017-Oct-20 08:00N 34°33' E 135°26'0 0.1
2017-Oct-20 07:30N 34°33' E 135°26'0 0.0
2017-Oct-20 06:59N 34°33' E 135°26'0 0.0
2017-Oct-20 06:30N 34°33' E 135°26'0 0.0
2017-Oct-20 06:00N 34°33' E 135°26'0 0.0
2017-Oct-20 05:30N 34°33' E 135°26'0 0.0
2017-Oct-20 05:00N 34°33' E 135°26'0 0.0
2017-Oct-20 04:30N 34°33' E 135°26'0 0.0
2017-Oct-20 04:00N 34°33' E 135°26'0 0.0
2017-Oct-20 03:30N 34°33' E 135°26'0 0.0
2017-Oct-20 03:00N 34°33' E 135°26'1 1.1
2017-Oct-20 02:28N 34°33' E 135°25'1 2.9
2017-Oct-20 02:00N 34°33' E 135°23'4 7.9
2017-Oct-20 01:30N 34°33' E 135°19'0 0.1
2017-Oct-20 00:57N 34°33' E 135°19'0 0.5
2017-Oct-20 00:30N 34°33' E 135°18'611.2
2017-Oct-20 00:01N 34°34' E 135°12'712.8
2017-Oct-19 23:30N 34°35' E 135°04'4 8.8
2017-Oct-19 23:00N 34°37' E 134°59'1 0.0
2017-Oct-18 07:11N 34°38' E 134°59'3 9.9
2017-Oct-18 06:51N 34°37' E 135°03'410.3
2017-Oct-18 06:30N 34°35' E 135°07'611.9
2017-Oct-18 06:00N 34°34' E 135°14'5 9.8
2017-Oct-18 05:30N 34°33' E 135°19'0 0.2
2017-Oct-18 05:00N 34°32' E 135°19'0 0.2
2017-Oct-18 04:30N 34°32' E 135°19'5 9.8
2017-Oct-18 04:00N 34°33' E 135°25'1 1.1
2017-Oct-18 03:30N 34°33' E 135°26'0 0.0
2017-Oct-18 03:00N 34°33' E 135°26'0 0.0
2017-Oct-18 02:30N 34°33' E 135°26'0 0.0
2017-Oct-18 02:00N 34°33' E 135°26'0 0.0
2017-Oct-18 01:30N 34°33' E 135°26'0 0.0
2017-Oct-18 01:00N 34°33' E 135°26'0 0.0
2017-Oct-18 00:30N 34°33' E 135°26'0 0.0
2017-Oct-18 00:00N 34°33' E 135°26'0 0.0
2017-Oct-17 23:30N 34°33' E 135°26'0 0.0
2017-Oct-17 23:00N 34°33' E 135°26'0 0.5
2017-Oct-17 22:29N 34°33' E 135°25'4 8.4
2017-Oct-17 22:00N 34°33' E 135°21'4 8.7
2017-Oct-17 21:30N 34°31' E 135°16'2 4.4
2017-Oct-17 20:59N 34°30' E 135°13'5 9.7
2017-Oct-17 20:30N 34°35' E 135°12'511.2
2017-Oct-17 20:00N 34°35' E 135°05'510.6
2017-Oct-17 19:30N 34°37' E 134°59'  
Track history (hours):
 
Tides and Currents Weather Stations Pressure Air Temp Water Temp Dewpoint Dewpoint Depression Visibility Wind Speed Wind Dir Waves Ship Positions

Chie Maru No.10

Last reported at 2017-Oct-20 13:29 UTC. Time now 2017-Oct-20 14:40 UTC.
Position N 34°08' E 135°07'.

Length 72 m; draft 5 m.

Type: Ship. MMSI: 431000147.

Date/timePositionNaut miles runAvg speedWind from/ knotsBaromVisibWave heightAir tempDewpointWater temp
2017-Oct-20 13:29N 34°08' E 135°07'0 0.0
2017-Oct-20 12:53N 34°08' E 135°07'0 0.0
2017-Oct-20 12:29N 34°08' E 135°07'0 0.0
2017-Oct-20 11:59N 34°08' E 135°07'2 3.9
2017-Oct-20 11:30N 34°09' E 135°05'611.4
2017-Oct-20 11:00N 34°13' E 135°01'10 9.8
2017-Oct-20 09:56N 34°24' E 135°02'612.2
2017-Oct-20 09:28N 34°27' E 135°08'612.5
2017-Oct-20 09:00N 34°30' E 135°14'612.4
2017-Oct-20 08:30N 34°33' E 135°21'4 7.7
2017-Oct-20 08:00N 34°33' E 135°26'0 0.1
2017-Oct-20 07:30N 34°33' E 135°26'0 0.0
2017-Oct-20 06:59N 34°33' E 135°26'0 0.0
2017-Oct-20 06:30N 34°33' E 135°26'0 0.0
2017-Oct-20 06:00N 34°33' E 135°26'0 0.0
2017-Oct-20 05:30N 34°33' E 135°26'0 0.0
2017-Oct-20 05:00N 34°33' E 135°26'0 0.0
2017-Oct-20 04:30N 34°33' E 135°26'0 0.0
2017-Oct-20 04:00N 34°33' E 135°26'0 0.0
2017-Oct-20 03:30N 34°33' E 135°26'0 0.0
2017-Oct-20 03:00N 34°33' E 135°26'1 1.1
2017-Oct-20 02:28N 34°33' E 135°25'1 2.9
2017-Oct-20 02:00N 34°33' E 135°23'4 7.9
2017-Oct-20 01:30N 34°33' E 135°19'0 0.1
2017-Oct-20 00:57N 34°33' E 135°19'0 0.5
2017-Oct-20 00:30N 34°33' E 135°18'611.2
2017-Oct-20 00:01N 34°34' E 135°12'712.8
2017-Oct-19 23:30N 34°35' E 135°04'4 8.8
2017-Oct-19 23:00N 34°37' E 134°59'1 0.0
2017-Oct-18 07:11N 34°38' E 134°59'3 9.9
2017-Oct-18 06:51N 34°37' E 135°03'410.3
2017-Oct-18 06:30N 34°35' E 135°07'611.9
2017-Oct-18 06:00N 34°34' E 135°14'5 9.8
2017-Oct-18 05:30N 34°33' E 135°19'0 0.2
2017-Oct-18 05:00N 34°32' E 135°19'0 0.2
2017-Oct-18 04:30N 34°32' E 135°19'5 9.8
2017-Oct-18 04:00N 34°33' E 135°25'1 1.1
2017-Oct-18 03:30N 34°33' E 135°26'0 0.0
2017-Oct-18 03:00N 34°33' E 135°26'0 0.0
2017-Oct-18 02:30N 34°33' E 135°26'0 0.0
2017-Oct-18 02:00N 34°33' E 135°26'0 0.0
2017-Oct-18 01:30N 34°33' E 135°26'0 0.0
2017-Oct-18 01:00N 34°33' E 135°26'0 0.0
2017-Oct-18 00:30N 34°33' E 135°26'0 0.0
2017-Oct-18 00:00N 34°33' E 135°26'0 0.0
2017-Oct-17 23:30N 34°33' E 135°26'0 0.0
2017-Oct-17 23:00N 34°33' E 135°26'0 0.5
2017-Oct-17 22:29N 34°33' E 135°25'4 8.4
2017-Oct-17 22:00N 34°33' E 135°21'4 8.7
2017-Oct-17 21:30N 34°31' E 135°16'2 4.4
2017-Oct-17 20:59N 34°30' E 135°13'5 9.7
2017-Oct-17 20:30N 34°35' E 135°12'511.2
2017-Oct-17 20:00N 34°35' E 135°05'510.6
2017-Oct-17 19:30N 34°37' E 134°59'  

Dump ship's entire track history